Time;durP1;ratioP1;P1;durP2;ratioP2;P2;SDS_P1;SDS_P2;PMS_P1;PMS_P2;Temp;Humidity;BMP_temperature;BMP_pressure;BME280_temperature;BME280_humidity;BME280_pressure;Samples;Min_cycle;Max_cycle;Signal;HPM_P1;HPM_P2
2022/05/28 00:00:29;;;;;;;4.50;2.55;;;;;;;;;;5053303;28;20013;-39
2022/05/28 00:02:54;;;;;;;3.95;2.42;;;;;;;;;;5053144;28;20049;-39
2022/05/28 00:05:20;;;;;;;6.15;3.25;;;;;;;;;;5051967;28;20112;-40
2022/05/28 00:07:45;;;;;;;4.25;2.92;;;;;;;;;;5053071;28;20086;-40
2022/05/28 00:10:13;;;;;;;3.90;2.63;;;;;;;;;;5051817;28;20019;-39
2022/05/28 00:12:38;;;;;;;6.93;2.67;;;;;;;;;;5052919;28;20040;-40
2022/05/28 00:15:05;;;;;;;6.65;2.83;;;;;;;;;;5052871;28;20045;-40
2022/05/28 00:17:30;;;;;;;3.95;2.65;;;;;;;;;;5052981;28;20033;-40
2022/05/28 00:19:55;;;;;;;6.72;2.70;;;;;;;;;;5053167;28;20170;-40
2022/05/28 00:22:21;;;;;;;5.05;2.97;;;;;;;;;;5051421;28;20490;-41
2022/05/28 00:24:46;;;;;;;8.52;2.40;;;;;;;;;;5051521;28;20025;-40
2022/05/28 00:27:11;;;;;;;5.63;3.78;;;;;;;;;;5052806;28;20052;-40
2022/05/28 00:29:37;;;;;;;10.82;3.45;;;;;;;;;;5051327;28;20098;-41
2022/05/28 00:32:03;;;;;;;4.38;3.38;;;;;;;;;;5052689;28;20093;-40
2022/05/28 00:34:29;;;;;;;5.47;3.28;;;;;;;;;;5052606;28;20024;-40
2022/05/28 00:36:54;;;;;;;10.00;3.97;;;;;;;;;;5052482;28;20107;-40
2022/05/28 00:39:20;;;;;;;12.57;3.33;;;;;;;;;;5052625;28;20017;-39
2022/05/28 00:41:45;;;;;;;9.82;3.15;;;;;;;;;;5052343;28;20036;-39
2022/05/28 00:44:12;;;;;;;5.35;3.30;;;;;;;;;;5052291;28;20029;-39
2022/05/28 00:46:37;;;;;;;6.05;3.20;;;;;;;;;;5052438;28;20029;-40
2022/05/28 00:49:07;;;;;;;4.97;3.13;;;;;;;;;;5052345;28;20019;-39
2022/05/28 00:51:35;;;;;;;7.13;2.92;;;;;;;;;;5052338;28;20032;-40
2022/05/28 00:54:02;;;;;;;6.75;2.92;;;;;;;;;;5052098;28;20013;-39
2022/05/28 00:56:28;;;;;;;6.25;2.92;;;;;;;;;;5052192;28;20699;-40
2022/05/28 00:58:53;;;;;;;6.75;3.25;;;;;;;;;;5052054;28;20053;-39
2022/05/28 01:01:23;;;;;;;9.60;3.05;;;;;;;;;;5052020;28;20069;-40
2022/05/28 01:03:58;;;;;;;6.00;2.92;;;;;;;;;;5051977;28;20067;-40
2022/05/28 01:06:24;;;;;;;4.97;2.95;;;;;;;;;;5052096;28;20033;-40
2022/05/28 01:08:52;;;;;;;8.55;3.20;;;;;;;;;;5051497;28;20019;-40
2022/05/28 01:11:20;;;;;;;4.15;2.58;;;;;;;;;;5051880;28;20040;-40
2022/05/28 01:13:51;;;;;;;5.13;2.97;;;;;;;;;;5050420;28;20045;-40
2022/05/28 01:16:45;;;;;;;4.28;2.97;;;;;;;;;;5052007;28;20033;-40
2022/05/28 01:19:11;;;;;;;8.55;3.58;;;;;;;;;;5051086;28;20052;-40
2022/05/28 01:21:39;;;;;;;4.55;2.60;;;;;;;;;;5052082;28;20107;-41
2022/05/28 01:24:37;;;;;;;8.80;3.10;;;;;;;;;;5051622;28;20048;-39
2022/05/28 01:27:04;;;;;;;3.83;3.30;;;;;;;;;;5033016;28;20110;-40
2022/05/28 01:29:36;;;;;;;4.07;2.90;;;;;;;;;;5051893;28;20021;-40
2022/05/28 01:32:03;;;;;;;6.35;3.55;;;;;;;;;;5051499;28;20104;-40
2022/05/28 01:34:29;;;;;;;5.13;2.90;;;;;;;;;;5051786;28;20462;-40
2022/05/28 01:36:55;;;;;;;3.45;2.55;;;;;;;;;;5051658;28;20086;-40
2022/05/28 01:39:21;;;;;;;5.78;3.15;;;;;;;;;;5051597;28;20024;-40
2022/05/28 01:41:47;;;;;;;10.27;3.25;;;;;;;;;;5051308;28;20360;-40
2022/05/28 01:44:12;;;;;;;6.57;2.60;;;;;;;;;;5051374;28;20029;-40
2022/05/28 01:46:39;;;;;;;5.28;3.22;;;;;;;;;;5051354;28;20079;-40
2022/05/28 01:49:05;;;;;;;8.05;3.65;;;;;;;;;;5051207;28;20033;-40
2022/05/28 01:51:35;;;;;;;10.50;3.53;;;;;;;;;;5051402;28;20040;-39
2022/05/28 01:54:07;;;;;;;4.68;2.58;;;;;;;;;;5051070;28;20033;-40
2022/05/28 01:56:36;;;;;;;3.70;2.70;;;;;;;;;;5051561;28;20029;-40
2022/05/28 01:59:02;;;;;;;6.30;2.97;;;;;;;;;;5051375;28;20021;-39
2022/05/28 02:01:28;;;;;;;3.08;2.58;;;;;;;;;;5051493;28;20422;-40
2022/05/28 02:03:56;;;;;;;5.97;3.17;;;;;;;;;;5051144;28;20553;-40
2022/05/28 02:06:21;;;;;;;7.22;2.45;;;;;;;;;;5051127;28;20052;-40
2022/05/28 02:08:48;;;;;;;8.70;3.88;;;;;;;;;;5051015;28;20117;-40
2022/05/28 02:11:15;;;;;;;3.70;2.95;;;;;;;;;;5049743;28;20029;-40
2022/05/28 02:13:43;;;;;;;4.18;2.92;;;;;;;;;;5051138;28;20049;-40
2022/05/28 02:16:12;;;;;;;5.57;2.90;;;;;;;;;;5051159;28;20123;-40
2022/05/28 02:18:52;;;;;;;4.93;3.65;;;;;;;;;;5051130;28;20375;-40
2022/05/28 02:21:36;;;;;;;8.50;3.75;;;;;;;;;;5053259;28;20033;-40
2022/05/28 02:24:11;;;;;;;10.20;3.58;;;;;;;;;;5054946;28;20060;-40
2022/05/28 02:26:43;;;;;;;5.95;3.03;;;;;;;;;;5054959;28;20029;-40
2022/05/28 02:29:08;;;;;;;6.38;2.90;;;;;;;;;;5054934;28;20033;-40
2022/05/28 02:31:34;;;;;;;4.40;3.20;;;;;;;;;;5055140;28;20020;-40
2022/05/28 02:34:00;;;;;;;4.50;3.08;;;;;;;;;;5054860;28;20494;-39
2022/05/28 02:36:26;;;;;;;5.03;2.90;;;;;;;;;;5054849;28;20029;-39
2022/05/28 02:38:51;;;;;;;3.15;2.72;;;;;;;;;;5055009;28;20525;-40
2022/05/28 02:41:17;;;;;;;6.97;3.10;;;;;;;;;;5054823;28;20486;-39
2022/05/28 02:43:43;;;;;;;5.70;3.17;;;;;;;;;;5054873;28;20045;-40
2022/05/28 02:46:09;;;;;;;8.40;3.15;;;;;;;;;;5054848;28;20021;-40
2022/05/28 02:48:34;;;;;;;3.95;2.65;;;;;;;;;;5054750;28;20166;-39
2022/05/28 02:51:03;;;;;;;4.40;2.72;;;;;;;;;;5054423;28;20017;-39
2022/05/28 02:53:28;;;;;;;4.65;2.97;;;;;;;;;;5054671;28;20048;-40
2022/05/28 02:55:53;;;;;;;11.90;3.03;;;;;;;;;;5054427;28;20024;-40
2022/05/28 02:58:19;;;;;;;4.13;2.97;;;;;;;;;;5054445;28;20029;-39
2022/05/28 03:00:44;;;;;;;3.38;2.80;;;;;;;;;;5053227;28;20028;-40
2022/05/28 03:03:10;;;;;;;6.40;3.40;;;;;;;;;;5054449;28;20074;-40
2022/05/28 03:05:35;;;;;;;12.38;3.15;;;;;;;;;;5054620;28;20021;-40
2022/05/28 03:08:01;;;;;;;3.53;2.28;;;;;;;;;;5054233;28;20047;-40
2022/05/28 03:10:26;;;;;;;5.13;3.25;;;;;;;;;;5052945;28;20057;-40
2022/05/28 03:12:52;;;;;;;6.97;3.17;;;;;;;;;;5053901;28;20111;-40
2022/05/28 03:15:17;;;;;;;8.27;3.25;;;;;;;;;;5053239;28;20043;-40
2022/05/28 03:17:42;;;;;;;8.38;3.63;;;;;;;;;;5053180;28;20722;-40
2022/05/28 03:20:08;;;;;;;11.18;3.08;;;;;;;;;;5052773;28;20495;-40
2022/05/28 03:22:34;;;;;;;7.38;3.40;;;;;;;;;;5052992;28;20045;-40
2022/05/28 03:24:59;;;;;;;4.80;3.10;;;;;;;;;;5052837;28;20028;-40
2022/05/28 03:27:24;;;;;;;9.07;2.72;;;;;;;;;;5052632;28;20029;-40
2022/05/28 03:29:49;;;;;;;3.58;2.40;;;;;;;;;;5052759;28;20133;-40
2022/05/28 03:32:15;;;;;;;5.38;2.50;;;;;;;;;;5052632;28;20104;-40
2022/05/28 03:34:40;;;;;;;4.03;1.80;;;;;;;;;;5052842;28;20429;-40
2022/05/28 03:37:06;;;;;;;7.32;2.33;;;;;;;;;;5052508;28;20037;-40
2022/05/28 03:39:31;;;;;;;3.60;1.83;;;;;;;;;;5052877;28;20074;-39
2022/05/28 03:41:56;;;;;;;5.30;2.22;;;;;;;;;;5052350;28;20036;-40
2022/05/28 03:44:22;;;;;;;5.35;3.05;;;;;;;;;;5052585;28;20089;-39
2022/05/28 03:46:47;;;;;;;3.63;2.05;;;;;;;;;;5052227;28;20060;-40
2022/05/28 03:49:19;;;;;;;4.75;1.85;;;;;;;;;;5052675;28;20017;-40
2022/05/28 03:51:44;;;;;;;10.27;2.53;;;;;;;;;;5052378;28;20629;-40
2022/05/28 03:54:10;;;;;;;3.65;2.10;;;;;;;;;;5052491;28;20107;-39
2022/05/28 03:56:38;;;;;;;3.83;2.10;;;;;;;;;;5052282;28;20051;-40
2022/05/28 03:59:04;;;;;;;3.80;2.13;;;;;;;;;;5052393;28;20025;-40
2022/05/28 04:01:30;;;;;;;4.93;2.03;;;;;;;;;;5052221;28;20053;-40
2022/05/28 04:03:55;;;;;;;3.38;2.20;;;;;;;;;;5051980;28;20125;-40
2022/05/28 04:06:21;;;;;;;5.88;2.20;;;;;;;;;;5052099;28;20032;-40
2022/05/28 04:08:47;;;;;;;3.40;1.50;;;;;;;;;;5052149;28;20110;-39
2022/05/28 04:11:13;;;;;;;3.92;2.80;;;;;;;;;;5051975;28;20120;-40
2022/05/28 04:13:39;;;;;;;3.50;1.60;;;;;;;;;;5010864;28;1189781;-40
2022/05/28 04:16:04;;;;;;;4.65;2.33;;;;;;;;;;5052889;28;20059;-39
2022/05/28 04:18:30;;;;;;;10.38;1.90;;;;;;;;;;5053218;28;20036;-40
2022/05/28 04:20:55;;;;;;;4.82;1.92;;;;;;;;;;5052931;28;20036;-40
2022/05/28 04:23:21;;;;;;;3.65;1.65;;;;;;;;;;5053047;28;20029;-40
2022/05/28 04:25:47;;;;;;;5.65;1.55;;;;;;;;;;5052674;28;20479;-40
2022/05/28 04:28:12;;;;;;;2.65;1.80;;;;;;;;;;5053041;28;20111;-40
2022/05/28 04:30:37;;;;;;;3.85;1.98;;;;;;;;;;5052643;28;20043;-40
2022/05/28 04:33:03;;;;;;;5.38;1.70;;;;;;;;;;5052762;28;20028;-40
2022/05/28 04:35:28;;;;;;;2.47;1.88;;;;;;;;;;5052785;28;20021;-39
2022/05/28 04:37:54;;;;;;;1.88;1.50;;;;;;;;;;5051199;28;20032;-40
2022/05/28 04:40:28;;;;;;;3.38;1.60;;;;;;;;;;5052658;28;20032;-40
2022/05/28 04:42:54;;;;;;;3.22;1.55;;;;;;;;;;5051549;28;20553;-39
2022/05/28 04:45:19;;;;;;;4.13;1.70;;;;;;;;;;5052527;28;20021;-39
2022/05/28 04:47:45;;;;;;;5.00;2.30;;;;;;;;;;5052645;28;20106;-39
2022/05/28 04:50:10;;;;;;;2.03;1.80;;;;;;;;;;5052311;28;20056;-39
2022/05/28 04:52:38;;;;;;;4.80;1.88;;;;;;;;;;5052611;28;20029;-40
2022/05/28 04:55:04;;;;;;;6.03;2.10;;;;;;;;;;5052422;28;20025;-40
2022/05/28 04:57:29;;;;;;;1.50;1.05;;;;;;;;;;5052250;28;20036;-40
2022/05/28 04:59:55;;;;;;;3.30;1.63;;;;;;;;;;5052276;28;20021;-40
2022/05/28 05:02:20;;;;;;;2.58;1.45;;;;;;;;;;5052295;28;20056;-40
2022/05/28 05:04:45;;;;;;;5.57;1.45;;;;;;;;;;5052226;28;20104;-40
2022/05/28 05:07:11;;;;;;;4.18;1.52;;;;;;;;;;5051752;28;20036;-40
2022/05/28 05:09:36;;;;;;;7.05;1.55;;;;;;;;;;5052082;28;20112;-40
2022/05/28 05:12:02;;;;;;;2.65;1.30;;;;;;;;;;5052182;28;20128;-40
2022/05/28 05:14:27;;;;;;;2.83;1.70;;;;;;;;;;5051765;28;20064;-40
2022/05/28 05:16:53;;;;;;;4.80;0.98;;;;;;;;;;5051802;28;20378;-40
2022/05/28 05:19:19;;;;;;;2.30;1.27;;;;;;;;;;5051837;28;20047;-40
2022/05/28 05:21:44;;;;;;;2.88;1.05;;;;;;;;;;5052053;28;20062;-40
2022/05/28 05:24:10;;;;;;;1.70;1.48;;;;;;;;;;5051929;28;20487;-40
2022/05/28 05:26:35;;;;;;;3.17;1.10;;;;;;;;;;5051906;28;20463;-39
2022/05/28 05:29:00;;;;;;;1.80;1.02;;;;;;;;;;5051542;28;20108;-39
2022/05/28 05:31:26;;;;;;;3.50;1.55;;;;;;;;;;5051881;28;20028;-39
2022/05/28 05:33:51;;;;;;;2.13;1.10;;;;;;;;;;5051872;28;20017;-40
2022/05/28 05:36:17;;;;;;;1.58;1.30;;;;;;;;;;5050227;28;20029;-39
2022/05/28 05:38:43;;;;;;;1.58;1.10;;;;;;;;;;5051416;28;20017;-39
2022/05/28 05:41:09;;;;;;;1.40;1.13;;;;;;;;;;5051503;28;20075;-39
2022/05/28 05:43:35;;;;;;;0.90;0.90;;;;;;;;;;5051357;28;20040;-39
2022/05/28 05:46:01;;;;;;;3.33;1.02;;;;;;;;;;5051370;28;20025;-40
2022/05/28 05:48:27;;;;;;;1.42;0.80;;;;;;;;;;5051404;28;20531;-39
2022/05/28 05:50:53;;;;;;;3.22;0.90;;;;;;;;;;5051329;28;20058;-40
2022/05/28 05:53:19;;;;;;;2.30;0.80;;;;;;;;;;5051402;28;20056;-39
2022/05/28 05:55:45;;;;;;;0.93;0.70;;;;;;;;;;5051165;28;20036;-39
2022/05/28 05:58:11;;;;;;;2.17;1.77;;;;;;;;;;5051123;28;20032;-40
2022/05/28 06:00:38;;;;;;;0.77;0.50;;;;;;;;;;5051066;28;20033;-39
2022/05/28 06:03:03;;;;;;;2.13;0.55;;;;;;;;;;5050910;28;20060;-39
2022/05/28 06:05:29;;;;;;;0.50;0.50;;;;;;;;;;5049880;28;20509;-42
2022/05/28 06:07:55;;;;;;;0.50;0.40;;;;;;;;;;5051622;28;20475;-40
2022/05/28 06:12:56;;;;;;;1.10;1.00;;;;;;;;;;4928228;26;20426;-37
2022/05/28 06:15:22;;;;;;;1.02;0.75;;;;;;;;;;5010453;28;20034;-38
2022/05/28 06:17:48;;;;;;;8.52;1.30;;;;;;;;;;5010397;28;20034;-37
2022/05/28 06:20:15;;;;;;;6.78;0.82;;;;;;;;;;5011645;28;20036;-37
2022/05/28 06:22:43;;;;;;;5.28;2.00;;;;;;;;;;5011434;28;20030;-38
2022/05/28 06:25:10;;;;;;;3.13;0.80;;;;;;;;;;5010255;28;20092;-38
2022/05/28 06:27:36;;;;;;;1.58;0.85;;;;;;;;;;5011601;28;20026;-39
2022/05/28 06:30:03;;;;;;;3.90;1.13;;;;;;;;;;5011516;28;20109;-38
2022/05/28 06:32:29;;;;;;;4.72;1.35;;;;;;;;;;5011462;28;20068;-38
2022/05/28 06:34:55;;;;;;;2.63;0.80;;;;;;;;;;5011620;28;20450;-38
2022/05/28 06:37:20;;;;;;;3.60;0.65;;;;;;;;;;5011749;28;20049;-37
2022/05/28 06:39:46;;;;;;;0.40;0.20;;;;;;;;;;5011838;28;20041;-38
2022/05/28 06:42:11;;;;;;;4.97;0.65;;;;;;;;;;5011380;28;20105;-38
2022/05/28 06:44:42;;;;;;;19.55;1.02;;;;;;;;;;5011440;28;20042;-38
2022/05/28 06:47:12;;;;;;;2.70;0.70;;;;;;;;;;5011333;28;20032;-38
2022/05/28 06:49:38;;;;;;;1.60;0.60;;;;;;;;;;5011713;28;20025;-39
2022/05/28 06:52:04;;;;;;;0.98;0.47;;;;;;;;;;5011556;28;20428;-38
2022/05/28 06:54:30;;;;;;;0.75;0.30;;;;;;;;;;5011606;28;20028;-38
2022/05/28 06:56:55;;;;;;;0.10;0.00;;;;;;;;;;5011379;28;20539;-38
2022/05/28 06:59:21;;;;;;;0.10;0.10;;;;;;;;;;5011477;28;20113;-37
2022/05/28 07:01:47;;;;;;;2.00;0.50;;;;;;;;;;5011098;28;20448;-38
2022/05/28 07:04:12;;;;;;;0.10;0.10;;;;;;;;;;5011329;28;20034;-38
2022/05/28 07:06:38;;;;;;;0.03;0.03;;;;;;;;;;5012572;28;20112;-38
2022/05/28 07:09:06;;;;;;;0.30;0.20;;;;;;;;;;5014762;28;20030;-38
2022/05/28 07:11:33;;;;;;;0.35;0.13;;;;;;;;;;5014729;28;20356;-38
2022/05/28 07:13:59;;;;;;;1.00;0.55;;;;;;;;;;5014601;28;20053;-38
2022/05/28 07:16:25;;;;;;;0.20;0.20;;;;;;;;;;5014623;28;20034;-38
2022/05/28 07:18:51;;;;;;;5.18;0.17;;;;;;;;;;5014714;28;20076;-38
2022/05/28 07:21:16;;;;;;;3.85;0.20;;;;;;;;;;5014692;28;20132;-38
2022/05/28 07:23:42;;;;;;;0.10;0.10;;;;;;;;;;5014419;28;20030;-38
2022/05/28 07:26:12;;;;;;;1.17;0.57;;;;;;;;;;5014779;28;20487;-38
2022/05/28 07:28:38;;;;;;;0.20;0.20;;;;;;;;;;5014513;28;20487;-38
2022/05/28 07:31:08;;;;;;;0.10;0.10;;;;;;;;;;5014334;28;20028;-38
2022/05/28 07:33:34;;;;;;;0.10;0.00;;;;;;;;;;5014351;28;20025;-38
2022/05/28 07:36:00;;;;;;;0.52;0.20;;;;;;;;;;5014581;28;20030;-38
2022/05/28 07:38:27;;;;;;;0.10;0.10;;;;;;;;;;5014235;28;20490;-38
2022/05/28 07:40:52;;;;;;;0.45;0.10;;;;;;;;;;5014287;28;20030;-38
2022/05/28 07:43:19;;;;;;;1.08;0.10;;;;;;;;;;5014263;28;20045;-38
2022/05/28 07:45:45;;;;;;;7.00;0.10;;;;;;;;;;5014519;28;20518;-37
2022/05/28 07:48:12;;;;;;;0.05;0.03;;;;;;;;;;5014117;28;20018;-38
2022/05/28 07:50:37;;;;;;;0.00;0.00;;;;;;;;;;5014146;28;20026;-37
2022/05/28 07:53:03;;;;;;;0.30;0.20;;;;;;;;;;5014176;28;20097;-38
2022/05/28 07:55:29;;;;;;;0.25;0.25;;;;;;;;;;5013970;28;20396;-38
2022/05/28 07:57:54;;;;;;;0.68;0.25;;;;;;;;;;5013956;28;20061;-38
2022/05/28 08:00:20;;;;;;;0.00;0.00;;;;;;;;;;5013837;28;20440;-38
2022/05/28 08:02:46;;;;;;;0.30;0.20;;;;;;;;;;5013794;28;20056;-38
2022/05/28 08:05:11;;;;;;;0.20;0.10;;;;;;;;;;5013836;28;20116;-38
2022/05/28 08:07:37;;;;;;;0.35;0.10;;;;;;;;;;5013855;28;20352;-38
2022/05/28 08:10:03;;;;;;;0.22;0.20;;;;;;;;;;5013975;28;20033;-38
2022/05/28 08:12:29;;;;;;;3.00;0.15;;;;;;;;;;5013455;28;20125;-39
2022/05/28 08:14:54;;;;;;;0.10;0.10;;;;;;;;;;5013679;28;20432;-38
2022/05/28 08:17:20;;;;;;;0.17;0.05;;;;;;;;;;5013455;28;20022;-38
2022/05/28 08:19:45;;;;;;;0.20;0.20;;;;;;;;;;5013086;28;20038;-38
2022/05/28 08:24:55;;;;;;;0.20;0.20;;;;;;;;;;5013760;28;20038;-38
2022/05/28 08:27:20;;;;;;;0.60;0.32;;;;;;;;;;5013301;28;20414;-38
2022/05/28 08:29:46;;;;;;;0.30;0.10;;;;;;;;;;5013684;28;20032;-38
2022/05/28 08:32:16;;;;;;;0.20;0.20;;;;;;;;;;5013181;28;20050;-38
2022/05/28 08:34:43;;;;;;;0.47;0.47;;;;;;;;;;5013468;28;20037;-38
2022/05/28 08:37:09;;;;;;;0.05;0.05;;;;;;;;;;5013185;28;20030;-38
2022/05/28 08:39:35;;;;;;;0.30;0.10;;;;;;;;;;5013217;28;20121;-39
2022/05/28 08:42:00;;;;;;;3.20;0.20;;;;;;;;;;5013075;28;20153;-38
2022/05/28 08:44:36;;;;;;;1.20;0.32;;;;;;;;;;5012946;28;20129;-38
2022/05/28 08:47:21;;;;;;;1.38;0.40;;;;;;;;;;5013288;28;20105;-38
2022/05/28 08:49:48;;;;;;;7.18;0.47;;;;;;;;;;5013001;28;20494;-38
2022/05/28 08:52:29;;;;;;;0.80;0.40;;;;;;;;;;5012861;28;20427;-38
2022/05/28 08:55:01;;;;;;;0.35;0.28;;;;;;;;;;5012901;28;20483;-38
2022/05/28 08:57:35;;;;;;;0.20;0.10;;;;;;;;;;5012818;28;20018;-44
2022/05/28 09:00:06;;;;;;;1.80;0.55;;;;;;;;;;5012848;28;20062;-38
2022/05/28 09:02:31;;;;;;;0.03;0.03;;;;;;;;;;5012809;28;20049;-38
2022/05/28 09:04:57;;;;;;;0.30;0.13;;;;;;;;;;5012690;28;20495;-38
2022/05/28 09:07:22;;;;;;;0.47;0.30;;;;;;;;;;5012660;28;20018;-38
2022/05/28 09:09:49;;;;;;;0.68;0.50;;;;;;;;;;5012629;28;20709;-38
2022/05/28 09:12:17;;;;;;;0.32;0.32;;;;;;;;;;5011100;28;20396;-38
2022/05/28 09:14:43;;;;;;;0.43;0.40;;;;;;;;;;5012603;28;20032;-38
2022/05/28 09:17:08;;;;;;;0.40;0.30;;;;;;;;;;5012341;28;20387;-38
2022/05/28 09:19:36;;;;;;;0.68;0.30;;;;;;;;;;5012553;28;20472;-38
2022/05/28 09:22:02;;;;;;;0.95;0.50;;;;;;;;;;5012693;28;20014;-38
2022/05/28 09:24:29;;;;;;;0.77;0.50;;;;;;;;;;5012254;28;20042;-38
2022/05/28 09:26:57;;;;;;;0.32;0.32;;;;;;;;;;5012376;28;20072;-38
2022/05/28 09:29:29;;;;;;;0.60;0.60;;;;;;;;;;5011884;28;20037;-38
2022/05/28 09:32:16;;;;;;;1.35;0.47;;;;;;;;;;5012144;28;20105;-38
2022/05/28 09:34:42;;;;;;;0.70;0.38;;;;;;;;;;5012576;28;20034;-38
2022/05/28 09:37:07;;;;;;;0.80;0.35;;;;;;;;;;5010913;28;20067;-38
2022/05/28 09:39:48;;;;;;;1.15;0.52;;;;;;;;;;5012373;28;20029;-38
2022/05/28 09:42:21;;;;;;;2.25;0.40;;;;;;;;;;5010831;28;20030;-38
2022/05/28 09:45:00;;;;;;;0.57;0.32;;;;;;;;;;5010867;28;20048;-38
2022/05/28 09:47:25;;;;;;;3.88;0.77;;;;;;;;;;5011982;28;20029;-38
2022/05/28 09:49:55;;;;;;;1.50;0.82;;;;;;;;;;5012059;28;20104;-38
2022/05/28 09:52:31;;;;;;;1.20;0.90;;;;;;;;;;5012081;28;20101;-38
2022/05/28 09:55:12;;;;;;;0.20;0.20;;;;;;;;;;5011985;28;20494;-38
2022/05/28 09:57:43;;;;;;;0.68;0.20;;;;;;;;;;5012045;28;20784;-39
2022/05/28 10:00:11;;;;;;;0.30;0.22;;;;;;;;;;5011783;28;20160;-38
2022/05/28 10:04:28;;;;;;;0.65;0.30;;;;;;;;;;5011790;28;20022;-37
2022/05/28 10:05:32;;;;;;;4.95;0.50;;;;;;;;;;5011823;28;20084;-38
2022/05/28 10:08:07;;;;;;;0.00;0.00;;;;;;;;;;5012125;28;20022;-38
2022/05/28 10:10:35;;;;;;;0.00;0.00;;;;;;;;;;5010662;28;20037;-38
2022/05/28 10:13:09;;;;;;;0.57;0.35;;;;;;;;;;5010288;28;20050;-38
2022/05/28 10:15:38;;;;;;;0.40;0.32;;;;;;;;;;5011778;28;20030;-38
2022/05/28 10:18:08;;;;;;;0.20;0.20;;;;;;;;;;5011578;28;20034;-38
2022/05/28 10:20:34;;;;;;;0.10;0.08;;;;;;;;;;5010322;28;20576;-38
2022/05/28 10:23:01;;;;;;;0.13;0.10;;;;;;;;;;5011524;28;20030;-38
2022/05/28 10:25:56;;;;;;;0.35;0.15;;;;;;;;;;5011594;28;20033;-38
2022/05/28 10:28:31;;;;;;;1.65;0.43;;;;;;;;;;4998538;28;20045;-38
2022/05/28 10:30:57;;;;;;;0.63;0.47;;;;;;;;;;5011517;28;20069;-38
2022/05/28 10:33:28;;;;;;;1.92;1.65;;;;;;;;;;5011484;28;20056;-38
2022/05/28 10:36:14;;;;;;;1.02;0.30;;;;;;;;;;5011463;28;20026;-38
2022/05/28 10:38:40;;;;;;;0.95;0.70;;;;;;;;;;5009872;28;20530;-39
2022/05/28 10:41:14;;;;;;;1.45;0.65;;;;;;;;;;5011632;28;20090;-38
2022/05/28 10:43:40;;;;;;;1.90;0.32;;;;;;;;;;5015225;28;20038;-38
2022/05/28 10:46:28;;;;;;;0.90;0.40;;;;;;;;;;5015162;28;20022;-38
2022/05/28 10:49:00;;;;;;;2.33;0.30;;;;;;;;;;5015147;28;20026;-38
2022/05/28 10:51:35;;;;;;;4.85;0.25;;;;;;;;;;5015095;28;20034;-38
2022/05/28 10:54:03;;;;;;;0.30;0.28;;;;;;;;;;5015435;28;20033;-38
2022/05/28 10:56:31;;;;;;;0.45;0.40;;;;;;;;;;5015265;28;20379;-38
2022/05/28 10:59:08;;;;;;;0.38;0.38;;;;;;;;;;5015331;28;20025;-38
2022/05/28 11:01:47;;;;;;;0.30;0.30;;;;;;;;;;5015007;28;20044;-38
2022/05/28 11:04:13;;;;;;;0.88;0.40;;;;;;;;;;5014976;28;20037;-37
2022/05/28 11:06:39;;;;;;;2.88;0.70;;;;;;;;;;5014889;28;20066;-37
2022/05/28 11:09:34;;;;;;;0.40;0.20;;;;;;;;;;5014804;28;20096;-38
2022/05/28 11:12:10;;;;;;;0.30;0.30;;;;;;;;;;5001406;28;20042;-37
2022/05/28 11:14:54;;;;;;;1.08;0.88;;;;;;;;;;5014778;28;20679;-38
2022/05/28 11:17:39;;;;;;;5.05;0.63;;;;;;;;;;5014612;28;20034;-38
2022/05/28 11:20:23;;;;;;;4.32;0.80;;;;;;;;;;5014859;28;20153;-38
2022/05/28 11:23:00;;;;;;;0.13;0.13;;;;;;;;;;5014507;28;20488;-38
2022/05/28 11:25:34;;;;;;;3.85;0.40;;;;;;;;;;5014705;28;20033;-38
2022/05/28 11:28:11;;;;;;;0.73;0.65;;;;;;;;;;5014678;28;20026;-38
2022/05/28 11:30:48;;;;;;;0.63;0.40;;;;;;;;;;5014488;28;20036;-38
2022/05/28 11:33:25;;;;;;;0.35;0.20;;;;;;;;;;5014285;28;20038;-38
2022/05/28 11:36:10;;;;;;;0.57;0.50;;;;;;;;;;5014349;28;20029;-38
2022/05/28 11:38:51;;;;;;;0.73;0.20;;;;;;;;;;5014394;28;20070;-38
2022/05/28 11:41:20;;;;;;;0.93;0.85;;;;;;;;;;5014159;28;20030;-38
2022/05/28 11:43:55;;;;;;;0.52;0.52;;;;;;;;;;5014069;28;20121;-38
2022/05/28 11:46:25;;;;;;;0.82;0.40;;;;;;;;;;5013971;28;20029;-38
2022/05/28 11:52:22;;;;;;;8.85;0.93;;;;;;;;;;4952981;28;20039;-38
2022/05/28 11:55:01;;;;;;;0.28;0.28;;;;;;;;;;4953275;29;20038;-38
2022/05/28 11:57:32;;;;;;;0.65;0.50;;;;;;;;;;4997816;28;20495;-38
2022/05/28 11:59:59;;;;;;;0.30;0.30;;;;;;;;;;5013875;28;20479;-38
2022/05/28 12:02:31;;;;;;;2.50;0.90;;;;;;;;;;5013729;28;20617;-38
2022/05/28 12:04:56;;;;;;;1.27;0.40;;;;;;;;;;5013984;28;20130;-38
2022/05/28 12:07:21;;;;;;;1.20;0.30;;;;;;;;;;5012477;28;20018;-38
2022/05/28 12:09:47;;;;;;;1.00;0.85;;;;;;;;;;5013991;28;20030;-38
2022/05/28 12:12:24;;;;;;;1.02;0.75;;;;;;;;;;5013576;28;20118;-38
2022/05/28 12:15:01;;;;;;;1.40;0.50;;;;;;;;;;5013892;28;20033;-37
2022/05/28 12:17:28;;;;;;;1.40;0.52;;;;;;;;;;5013817;28;20029;-38
2022/05/28 12:20:05;;;;;;;0.75;0.75;;;;;;;;;;5013836;28;20028;-38
2022/05/28 12:22:35;;;;;;;1.75;0.70;;;;;;;;;;5013638;28;20115;-38
2022/05/28 12:25:13;;;;;;;3.22;0.93;;;;;;;;;;5013633;28;20085;-38
2022/05/28 12:27:44;;;;;;;1.48;0.57;;;;;;;;;;5013460;28;20109;-38
2022/05/28 12:30:30;;;;;;;0.50;0.30;;;;;;;;;;5013118;28;20030;-39
2022/05/28 12:32:57;;;;;;;4.57;1.08;;;;;;;;;;5013504;28;20030;-37
2022/05/28 12:35:25;;;;;;;0.47;0.45;;;;;;;;;;5013155;28;20017;-37
2022/05/28 12:37:51;;;;;;;1.48;0.60;;;;;;;;;;5013175;28;20079;-37
2022/05/28 12:40:16;;;;;;;0.52;0.25;;;;;;;;;;5013179;28;20102;-37
2022/05/28 12:42:41;;;;;;;0.15;0.10;;;;;;;;;;5012927;28;20049;-38
2022/05/28 12:45:26;;;;;;;1.02;0.32;;;;;;;;;;5011728;28;20026;-38
2022/05/28 12:48:02;;;;;;;3.70;0.35;;;;;;;;;;5012980;28;20816;-37
2022/05/28 12:50:32;;;;;;;1.80;0.40;;;;;;;;;;5012952;28;20079;-37
2022/05/28 12:53:09;;;;;;;0.88;0.30;;;;;;;;;;5013164;28;20485;-38
2022/05/28 12:55:37;;;;;;;0.60;0.60;;;;;;;;;;5013126;28;20026;-38
2022/05/28 12:58:04;;;;;;;1.45;0.28;;;;;;;;;;5012983;28;20577;-37
2022/05/28 13:00:42;;;;;;;1.33;0.50;;;;;;;;;;5012737;28;20430;-37
2022/05/28 13:03:08;;;;;;;0.40;0.40;;;;;;;;;;5012625;28;20526;-37
2022/05/28 13:05:42;;;;;;;0.90;0.50;;;;;;;;;;5011993;28;20096;-38
2022/05/28 13:08:09;;;;;;;0.73;0.32;;;;;;;;;;5012595;28;20026;-38
2022/05/28 13:10:35;;;;;;;5.68;0.60;;;;;;;;;;5012578;28;20017;-38
2022/05/28 13:13:20;;;;;;;0.45;0.40;;;;;;;;;;5012255;28;20050;-37
2022/05/28 13:15:46;;;;;;;0.77;0.50;;;;;;;;;;5012588;28;20503;-37
2022/05/28 13:18:19;;;;;;;1.95;0.77;;;;;;;;;;5012374;28;20018;-37
2022/05/28 13:20:50;;;;;;;0.20;0.13;;;;;;;;;;5012508;28;20420;-38
2022/05/28 13:23:21;;;;;;;0.40;0.40;;;;;;;;;;5012201;28;20038;-38
2022/05/28 13:25:46;;;;;;;0.30;0.30;;;;;;;;;;5012326;28;20057;-37
2022/05/28 13:28:12;;;;;;;0.57;0.40;;;;;;;;;;5012280;28;20107;-37
2022/05/28 13:30:42;;;;;;;0.20;0.20;;;;;;;;;;5012549;28;20372;-37
2022/05/28 13:33:10;;;;;;;0.52;0.45;;;;;;;;;;5012047;28;20033;-37
2022/05/28 13:35:55;;;;;;;5.28;0.75;;;;;;;;;;5012226;28;20458;-38
2022/05/28 13:38:28;;;;;;;3.67;0.55;;;;;;;;;;5012031;28;20033;-37
2022/05/28 13:40:58;;;;;;;4.78;0.57;;;;;;;;;;5012058;28;20411;-37
2022/05/28 13:43:31;;;;;;;1.75;0.82;;;;;;;;;;5011827;28;20117;-37
2022/05/28 13:46:00;;;;;;;0.10;0.10;;;;;;;;;;5012368;28;20029;-37
2022/05/28 13:48:26;;;;;;;0.47;0.30;;;;;;;;;;5011863;28;20430;-37
2022/05/28 13:50:54;;;;;;;0.50;0.32;;;;;;;;;;5011970;28;20508;-37
2022/05/28 13:53:25;;;;;;;0.35;0.30;;;;;;;;;;5011741;28;20033;-37
2022/05/28 13:55:56;;;;;;;0.47;0.25;;;;;;;;;;5011789;28;20479;-37
2022/05/28 13:58:23;;;;;;;0.20;0.20;;;;;;;;;;5011829;28;20037;-37
2022/05/28 14:00:54;;;;;;;1.63;0.10;;;;;;;;;;5012081;28;20088;-37
2022/05/28 14:03:27;;;;;;;0.57;0.30;;;;;;;;;;5011592;28;20049;-37
2022/05/28 14:05:53;;;;;;;;;;;;;;;;;;5012561;28;20033;-37
2022/05/28 14:08:57;;;;;;;0.10;0.10;;;;;;;;;;5011630;28;19909;-37
2022/05/28 14:11:25;;;;;;;0.85;0.65;;;;;;;;;;4950924;29;20535;-37
2022/05/28 14:13:54;;;;;;;0.52;0.52;;;;;;;;;;4919047;29;20054;-37
2022/05/28 14:16:29;;;;;;;6.20;1.80;;;;;;;;;;4989659;28;20041;-37
2022/05/28 14:18:56;;;;;;;0.52;0.32;;;;;;;;;;5015797;28;20034;-37
2022/05/28 14:21:24;;;;;;;1.20;0.52;;;;;;;;;;5015681;28;20038;-37
2022/05/28 14:23:50;;;;;;;7.68;0.40;;;;;;;;;;5014390;28;20073;-38
2022/05/28 14:26:19;;;;;;;0.57;0.43;;;;;;;;;;5015563;28;20034;-37
2022/05/28 14:28:45;;;;;;;1.58;0.43;;;;;;;;;;5015628;28;20030;-38
2022/05/28 14:31:15;;;;;;;2.47;0.70;;;;;;;;;;5015652;28;20022;-37
2022/05/28 14:33:42;;;;;;;0.50;0.45;;;;;;;;;;5015604;28;20108;-37
2022/05/28 14:36:09;;;;;;;1.25;0.55;;;;;;;;;;5015489;28;20026;-37
2022/05/28 14:38:35;;;;;;;0.15;0.13;;;;;;;;;;5015424;28;20037;-37
2022/05/28 14:41:06;;;;;;;2.08;0.25;;;;;;;;;;5015421;28;20021;-37
2022/05/28 14:43:33;;;;;;;0.20;0.20;;;;;;;;;;5015612;28;20380;-37
2022/05/28 14:46:02;;;;;;;0.90;0.40;;;;;;;;;;5015292;28;20108;-37
2022/05/28 14:48:28;;;;;;;2.17;0.38;;;;;;;;;;5015470;28;20817;-37
2022/05/28 14:50:56;;;;;;;2.30;0.75;;;;;;;;;;5015229;28;20056;-37
2022/05/28 14:53:27;;;;;;;0.80;0.70;;;;;;;;;;4988348;28;20409;-37
2022/05/28 14:55:53;;;;;;;1.33;0.73;;;;;;;;;;4976069;28;20038;-37
2022/05/28 14:58:21;;;;;;;1.08;0.60;;;;;;;;;;4975912;28;20373;-38
2022/05/28 15:00:48;;;;;;;0.43;0.43;;;;;;;;;;4975977;28;20081;-38